sensor_id;sensor_type;location;lat;lon;timestamp;P1;durP1;ratioP1;P2;durP2;ratioP2
50649;SDS011;36621;60.058;30.346;2023-04-29T00:01:46;4.45;;;2.42;;
50649;SDS011;36621;60.058;30.346;2023-04-29T00:09:18;6.47;;;2.35;;
50649;SDS011;36621;60.058;30.346;2023-04-29T00:16:52;5.28;;;2.20;;
50649;SDS011;36621;60.058;30.346;2023-04-29T00:24:24;6.90;;;2.65;;
50649;SDS011;36621;60.058;30.346;2023-04-29T00:31:57;4.15;;;2.53;;
50649;SDS011;36621;60.058;30.346;2023-04-29T00:39:29;4.70;;;2.30;;
50649;SDS011;36621;60.058;30.346;2023-04-29T00:47:01;7.90;;;2.30;;
50649;SDS011;36621;60.058;30.346;2023-04-29T00:54:34;5.40;;;2.15;;
50649;SDS011;36621;60.058;30.346;2023-04-29T01:02:08;3.63;;;2.10;;
50649;SDS011;36621;60.058;30.346;2023-04-29T01:09:43;4.78;;;1.98;;
50649;SDS011;36621;60.058;30.346;2023-04-29T01:17:25;4.50;;;1.95;;
50649;SDS011;36621;60.058;30.346;2023-04-29T01:25:02;3.75;;;1.58;;
50649;SDS011;36621;60.058;30.346;2023-04-29T01:32:43;3.28;;;1.98;;
50649;SDS011;36621;60.058;30.346;2023-04-29T01:40:33;4.67;;;2.10;;
50649;SDS011;36621;60.058;30.346;2023-04-29T01:48:19;4.10;;;2.05;;
50649;SDS011;36621;60.058;30.346;2023-04-29T01:55:52;4.53;;;1.80;;
50649;SDS011;36621;60.058;30.346;2023-04-29T02:03:43;4.80;;;2.10;;
50649;SDS011;36621;60.058;30.346;2023-04-29T02:11:18;3.08;;;2.17;;
50649;SDS011;36621;60.058;30.346;2023-04-29T02:18:51;3.40;;;1.83;;
50649;SDS011;36621;60.058;30.346;2023-04-29T02:26:25;4.13;;;2.08;;
50649;SDS011;36621;60.058;30.346;2023-04-29T02:34:00;3.88;;;2.25;;
50649;SDS011;36621;60.058;30.346;2023-04-29T02:41:32;3.08;;;1.90;;
50649;SDS011;36621;60.058;30.346;2023-04-29T02:49:04;3.28;;;1.95;;
50649;SDS011;36621;60.058;30.346;2023-04-29T02:56:38;3.92;;;1.80;;
50649;SDS011;36621;60.058;30.346;2023-04-29T03:04:10;5.97;;;1.90;;
50649;SDS011;36621;60.058;30.346;2023-04-29T03:11:42;3.20;;;1.33;;
50649;SDS011;36621;60.058;30.346;2023-04-29T03:19:14;1.60;;;1.30;;
50649;SDS011;36621;60.058;30.346;2023-04-29T03:26:48;5.00;;;1.75;;
50649;SDS011;36621;60.058;30.346;2023-04-29T03:34:20;3.00;;;1.40;;
50649;SDS011;36621;60.058;30.346;2023-04-29T03:42:01;3.00;;;1.10;;
50649;SDS011;36621;60.058;30.346;2023-04-29T03:49:34;2.17;;;1.23;;
50649;SDS011;36621;60.058;30.346;2023-04-29T03:57:08;3.13;;;1.23;;
50649;SDS011;36621;60.058;30.346;2023-04-29T04:04:41;3.67;;;1.20;;
50649;SDS011;36621;60.058;30.346;2023-04-29T04:12:14;5.05;;;1.25;;
50649;SDS011;36621;60.058;30.346;2023-04-29T04:19:46;3.30;;;0.82;;
50649;SDS011;36621;60.058;30.346;2023-04-29T04:27:19;1.50;;;0.90;;
50649;SDS011;36621;60.058;30.346;2023-04-29T04:34:52;3.33;;;1.02;;
50649;SDS011;36621;60.058;30.346;2023-04-29T04:42:25;3.65;;;1.30;;
50649;SDS011;36621;60.058;30.346;2023-04-29T04:50:02;5.57;;;1.17;;
50649;SDS011;36621;60.058;30.346;2023-04-29T04:57:37;7.53;;;1.23;;
50649;SDS011;36621;60.058;30.346;2023-04-29T05:05:10;2.38;;;1.20;;
50649;SDS011;36621;60.058;30.346;2023-04-29T05:12:46;7.30;;;0.90;;
50649;SDS011;36621;60.058;30.346;2023-04-29T05:20:18;3.15;;;2.00;;
50649;SDS011;36621;60.058;30.346;2023-04-29T05:27:52;1.48;;;0.88;;
50649;SDS011;36621;60.058;30.346;2023-04-29T05:35:25;10.18;;;2.45;;
50649;SDS011;36621;60.058;30.346;2023-04-29T05:42:59;7.82;;;1.33;;
50649;SDS011;36621;60.058;30.346;2023-04-29T05:50:33;3.25;;;1.42;;
50649;SDS011;36621;60.058;30.346;2023-04-29T05:58:06;3.03;;;1.20;;
50649;SDS011;36621;60.058;30.346;2023-04-29T06:21:48;5.95;;;1.40;;
50649;SDS011;36621;60.058;30.346;2023-04-29T06:29:20;2.75;;;1.65;;
50649;SDS011;36621;60.058;30.346;2023-04-29T06:36:53;17.55;;;1.95;;
50649;SDS011;36621;60.058;30.346;2023-04-29T06:44:52;12.73;;;1.80;;
50649;SDS011;36621;60.058;30.346;2023-04-29T06:52:45;9.40;;;1.40;;
